Terminal Aerodrome Forecast
Issued by NWS

Home | Current Version | Previous Version | Text Only | Print | Product List | Glossary On
Versions: 1 2 3 4 5 6 7 8 9 10 11 12
000
FTUS46 KSGX 300525
TAFTRM
TAF
KTRM 300525Z 3006/0106 VRB06KT P6SM SKC
     FM302000 13010KT P6SM SCT150
     FM010500 33010KT P6SM FEW150=

USA.gov is the U.S. government's official web portal to all federal, state and local government web resources and services.